sensor_id;sensor_type;location;lat;lon;timestamp;temperature;humidity
44247;DHT22;29922;0.000;0.000;2022-07-23T00:00:33;20.20;62.90
44247;DHT22;29922;0.000;0.000;2022-07-23T00:05:53;20.20;63.60
44247;DHT22;29922;0.000;0.000;2022-07-23T00:11:15;20.20;63.90
44247;DHT22;29922;0.000;0.000;2022-07-23T00:16:36;20.20;64.40
44247;DHT22;29922;0.000;0.000;2022-07-23T00:21:56;20.10;64.60
44247;DHT22;29922;0.000;0.000;2022-07-23T00:27:18;20.10;64.50
44247;DHT22;29922;0.000;0.000;2022-07-23T00:32:45;20.20;64.80
44247;DHT22;29922;0.000;0.000;2022-07-23T00:38:08;20.10;64.80
44247;DHT22;29922;0.000;0.000;2022-07-23T00:43:30;20.10;64.60
44247;DHT22;29922;0.000;0.000;2022-07-23T00:48:51;20.10;64.70
44247;DHT22;29922;0.000;0.000;2022-07-23T00:54:11;20.00;64.60
44247;DHT22;29922;0.000;0.000;2022-07-23T00:59:33;19.90;64.20
44247;DHT22;29922;0.000;0.000;2022-07-23T01:04:54;19.90;64.00
44247;DHT22;29922;0.000;0.000;2022-07-23T01:10:15;19.90;63.90
44247;DHT22;29922;0.000;0.000;2022-07-23T01:15:55;19.90;64.60
44247;DHT22;29922;0.000;0.000;2022-07-23T01:21:18;19.90;64.30
44247;DHT22;29922;0.000;0.000;2022-07-23T01:26:42;19.80;64.20
44247;DHT22;29922;0.000;0.000;2022-07-23T01:32:06;19.90;64.10
44247;DHT22;29922;0.000;0.000;2022-07-23T01:37:27;19.90;63.40
44247;DHT22;29922;0.000;0.000;2022-07-23T01:42:48;19.90;63.00
44247;DHT22;29922;0.000;0.000;2022-07-23T01:48:09;19.90;63.20
44247;DHT22;29922;0.000;0.000;2022-07-23T01:53:29;19.90;63.30
44247;DHT22;29922;0.000;0.000;2022-07-23T01:58:52;19.90;63.10
44247;DHT22;29922;0.000;0.000;2022-07-23T02:04:12;19.90;62.90
44247;DHT22;29922;0.000;0.000;2022-07-23T02:09:33;19.80;62.60
44247;DHT22;29922;0.000;0.000;2022-07-23T02:14:55;19.80;62.70
44247;DHT22;29922;0.000;0.000;2022-07-23T02:20:16;19.80;62.80
44247;DHT22;29922;0.000;0.000;2022-07-23T02:25:36;19.80;62.90
44247;DHT22;29922;0.000;0.000;2022-07-23T02:30:58;19.80;62.60
44247;DHT22;29922;0.000;0.000;2022-07-23T02:36:19;19.80;62.90
44247;DHT22;29922;0.000;0.000;2022-07-23T02:41:39;19.80;63.00
44247;DHT22;29922;0.000;0.000;2022-07-23T02:47:01;19.80;63.00
44247;DHT22;29922;0.000;0.000;2022-07-23T02:52:21;19.90;63.10
44247;DHT22;29922;0.000;0.000;2022-07-23T02:57:42;19.80;63.50
44247;DHT22;29922;0.000;0.000;2022-07-23T03:03:04;19.80;63.40
44247;DHT22;29922;0.000;0.000;2022-07-23T03:08:25;19.80;63.50
44247;DHT22;29922;0.000;0.000;2022-07-23T03:13:45;19.80;63.00
44247;DHT22;29922;0.000;0.000;2022-07-23T03:19:07;19.80;62.70
44247;DHT22;29922;0.000;0.000;2022-07-23T03:24:28;19.80;62.20
44247;DHT22;29922;0.000;0.000;2022-07-23T03:30:03;19.70;62.30
44247;DHT22;29922;0.000;0.000;2022-07-23T03:35:26;19.70;64.00
44247;DHT22;29922;0.000;0.000;2022-07-23T03:40:47;19.70;64.70
44247;DHT22;29922;0.000;0.000;2022-07-23T03:46:07;19.70;64.70
44247;DHT22;29922;0.000;0.000;2022-07-23T03:51:30;19.70;65.10
44247;DHT22;29922;0.000;0.000;2022-07-23T03:56:51;19.70;65.20
44247;DHT22;29922;0.000;0.000;2022-07-23T04:02:11;19.70;65.40
44247;DHT22;29922;0.000;0.000;2022-07-23T04:07:33;19.60;65.70
44247;DHT22;29922;0.000;0.000;2022-07-23T04:12:53;19.60;65.80
44247;DHT22;29922;0.000;0.000;2022-07-23T04:18:14;19.60;65.70
44247;DHT22;29922;0.000;0.000;2022-07-23T04:23:37;19.70;65.30
44247;DHT22;29922;0.000;0.000;2022-07-23T04:28:58;19.70;65.70
44247;DHT22;29922;0.000;0.000;2022-07-23T04:34:19;19.60;66.20
44247;DHT22;29922;0.000;0.000;2022-07-23T04:39:41;19.60;66.40
44247;DHT22;29922;0.000;0.000;2022-07-23T04:45:01;19.60;66.70
44247;DHT22;29922;0.000;0.000;2022-07-23T04:50:22;19.60;66.70
44247;DHT22;29922;0.000;0.000;2022-07-23T04:55:44;19.70;66.60
44247;DHT22;29922;0.000;0.000;2022-07-23T05:01:05;19.70;66.60
44247;DHT22;29922;0.000;0.000;2022-07-23T05:06:25;19.70;66.70
44247;DHT22;29922;0.000;0.000;2022-07-23T05:11:47;19.70;66.80
44247;DHT22;29922;0.000;0.000;2022-07-23T05:17:08;19.60;67.30
44247;DHT22;29922;0.000;0.000;2022-07-23T05:22:28;19.60;67.60
44247;DHT22;29922;0.000;0.000;2022-07-23T05:27:50;19.70;67.60
44247;DHT22;29922;0.000;0.000;2022-07-23T05:33:11;19.60;67.30
44247;DHT22;29922;0.000;0.000;2022-07-23T05:38:32;19.70;67.60
44247;DHT22;29922;0.000;0.000;2022-07-23T05:43:55;19.70;67.60
44247;DHT22;29922;0.000;0.000;2022-07-23T05:49:15;19.70;67.60
44247;DHT22;29922;0.000;0.000;2022-07-23T05:54:36;19.70;67.90
44247;DHT22;29922;0.000;0.000;2022-07-23T05:59:58;19.70;67.90
44247;DHT22;29922;0.000;0.000;2022-07-23T06:05:19;19.70;67.90
44247;DHT22;29922;0.000;0.000;2022-07-23T06:10:40;19.70;68.20
44247;DHT22;29922;0.000;0.000;2022-07-23T06:16:02;19.70;67.90
44247;DHT22;29922;0.000;0.000;2022-07-23T06:21:22;19.70;68.10
44247;DHT22;29922;0.000;0.000;2022-07-23T06:26:43;19.70;67.80
44247;DHT22;29922;0.000;0.000;2022-07-23T06:32:05;19.70;67.80
44247;DHT22;29922;0.000;0.000;2022-07-23T06:37:25;19.70;67.50
44247;DHT22;29922;0.000;0.000;2022-07-23T06:42:46;19.70;67.80
44247;DHT22;29922;0.000;0.000;2022-07-23T06:48:08;19.70;68.00
44247;DHT22;29922;0.000;0.000;2022-07-23T06:53:29;19.70;68.00
44247;DHT22;29922;0.000;0.000;2022-07-23T06:58:50;19.70;67.90
44247;DHT22;29922;0.000;0.000;2022-07-23T07:04:12;19.60;67.70
44247;DHT22;29922;0.000;0.000;2022-07-23T07:09:32;19.60;68.30
44247;DHT22;29922;0.000;0.000;2022-07-23T07:14:53;19.60;68.70
44247;DHT22;29922;0.000;0.000;2022-07-23T07:20:15;19.60;69.20
44247;DHT22;29922;0.000;0.000;2022-07-23T07:25:35;19.50;69.40
44247;DHT22;29922;0.000;0.000;2022-07-23T07:30:56;19.70;69.10
44247;DHT22;29922;0.000;0.000;2022-07-23T07:36:18;19.60;68.40
44247;DHT22;29922;0.000;0.000;2022-07-23T07:41:39;19.70;67.80
44247;DHT22;29922;0.000;0.000;2022-07-23T07:46:59;19.70;68.00
44247;DHT22;29922;0.000;0.000;2022-07-23T07:52:21;19.60;68.10
44247;DHT22;29922;0.000;0.000;2022-07-23T07:57:42;19.60;68.30
44247;DHT22;29922;0.000;0.000;2022-07-23T08:03:03;19.60;68.60
44247;DHT22;29922;0.000;0.000;2022-07-23T08:08:25;19.70;69.00
44247;DHT22;29922;0.000;0.000;2022-07-23T08:13:45;19.70;70.30
44247;DHT22;29922;0.000;0.000;2022-07-23T08:19:05;19.70;69.50
44247;DHT22;29922;0.000;0.000;2022-07-23T08:24:27;19.70;69.50
44247;DHT22;29922;0.000;0.000;2022-07-23T08:29:48;19.70;69.50
44247;DHT22;29922;0.000;0.000;2022-07-23T08:35:08;19.70;69.70
44247;DHT22;29922;0.000;0.000;2022-07-23T08:40:32;19.70;69.50
44247;DHT22;29922;0.000;0.000;2022-07-23T08:45:55;19.70;69.80
44247;DHT22;29922;0.000;0.000;2022-07-23T08:51:17;19.70;69.90
44247;DHT22;29922;0.000;0.000;2022-07-23T08:56:40;19.70;69.80
44247;DHT22;29922;0.000;0.000;2022-07-23T09:02:01;19.70;70.20
44247;DHT22;29922;0.000;0.000;2022-07-23T09:07:21;19.70;69.10
44247;DHT22;29922;0.000;0.000;2022-07-23T09:12:43;19.70;69.70
44247;DHT22;29922;0.000;0.000;2022-07-23T09:18:03;19.70;68.80
44247;DHT22;29922;0.000;0.000;2022-07-23T09:23:37;19.70;69.00
44247;DHT22;29922;0.000;0.000;2022-07-23T09:29:06;19.70;68.90
44247;DHT22;29922;0.000;0.000;2022-07-23T09:34:28;19.70;69.20
44247;DHT22;29922;0.000;0.000;2022-07-23T09:39:51;19.70;68.80
44247;DHT22;29922;0.000;0.000;2022-07-23T09:45:25;19.80;69.20
44247;DHT22;29922;0.000;0.000;2022-07-23T09:50:46;19.80;68.90
44247;DHT22;29922;0.000;0.000;2022-07-23T09:56:08;19.80;68.40
44247;DHT22;29922;0.000;0.000;2022-07-23T10:01:31;19.80;68.30
44247;DHT22;29922;0.000;0.000;2022-07-23T10:06:53;19.80;68.20
44247;DHT22;29922;0.000;0.000;2022-07-23T10:12:15;19.80;68.00
44247;DHT22;29922;0.000;0.000;2022-07-23T10:17:50;19.80;67.90
44247;DHT22;29922;0.000;0.000;2022-07-23T10:23:27;19.80;67.60
44247;DHT22;29922;0.000;0.000;2022-07-23T10:29:05;19.80;67.70
44247;DHT22;29922;0.000;0.000;2022-07-23T10:34:41;19.80;67.30
44247;DHT22;29922;0.000;0.000;2022-07-23T10:40:10;19.80;67.50
44247;DHT22;29922;0.000;0.000;2022-07-23T10:45:34;19.80;67.50
44247;DHT22;29922;0.000;0.000;2022-07-23T10:51:08;19.80;67.60
44247;DHT22;29922;0.000;0.000;2022-07-23T10:57:06;19.80;67.50
44247;DHT22;29922;0.000;0.000;2022-07-23T11:02:29;19.90;67.70
44247;DHT22;29922;0.000;0.000;2022-07-23T11:08:19;19.90;67.60
44247;DHT22;29922;0.000;0.000;2022-07-23T11:13:44;19.90;67.80
44247;DHT22;29922;0.000;0.000;2022-07-23T11:19:07;19.90;67.70
44247;DHT22;29922;0.000;0.000;2022-07-23T11:24:29;19.90;67.80
44247;DHT22;29922;0.000;0.000;2022-07-23T11:29:50;19.90;67.70
44247;DHT22;29922;0.000;0.000;2022-07-23T11:35:22;19.90;67.80
44247;DHT22;29922;0.000;0.000;2022-07-23T11:40:49;19.90;67.70
44247;DHT22;29922;0.000;0.000;2022-07-23T11:46:11;19.90;68.00
44247;DHT22;29922;0.000;0.000;2022-07-23T11:51:31;19.90;67.60
44247;DHT22;29922;0.000;0.000;2022-07-23T11:56:56;19.90;67.60
44247;DHT22;29922;0.000;0.000;2022-07-23T12:02:19;19.90;67.50
44247;DHT22;29922;0.000;0.000;2022-07-23T12:07:42;19.90;66.80
44247;DHT22;29922;0.000;0.000;2022-07-23T12:13:07;20.00;67.20
44247;DHT22;29922;0.000;0.000;2022-07-23T12:18:29;20.00;67.00
44247;DHT22;29922;0.000;0.000;2022-07-23T12:23:50;20.00;67.00
44247;DHT22;29922;0.000;0.000;2022-07-23T12:29:11;20.00;66.80
44247;DHT22;29922;0.000;0.000;2022-07-23T12:34:32;20.00;66.70
44247;DHT22;29922;0.000;0.000;2022-07-23T12:39:53;20.00;66.60
44247;DHT22;29922;0.000;0.000;2022-07-23T12:45:14;20.00;66.30
44247;DHT22;29922;0.000;0.000;2022-07-23T12:50:44;20.00;66.20
44247;DHT22;29922;0.000;0.000;2022-07-23T12:56:12;20.00;65.60
44247;DHT22;29922;0.000;0.000;2022-07-23T13:01:36;20.20;64.90
44247;DHT22;29922;0.000;0.000;2022-07-23T13:06:59;20.20;64.30
44247;DHT22;29922;0.000;0.000;2022-07-23T13:12:21;20.20;64.20
44247;DHT22;29922;0.000;0.000;2022-07-23T13:17:42;20.10;64.00
44247;DHT22;29922;0.000;0.000;2022-07-23T13:23:04;20.10;64.00
44247;DHT22;29922;0.000;0.000;2022-07-23T13:28:25;20.10;63.80
44247;DHT22;29922;0.000;0.000;2022-07-23T13:33:47;20.20;63.50
44247;DHT22;29922;0.000;0.000;2022-07-23T13:39:08;20.10;63.70
44247;DHT22;29922;0.000;0.000;2022-07-23T13:44:28;20.20;63.40
44247;DHT22;29922;0.000;0.000;2022-07-23T13:49:50;20.20;63.20
44247;DHT22;29922;0.000;0.000;2022-07-23T13:55:10;20.20;63.00
44247;DHT22;29922;0.000;0.000;2022-07-23T14:00:33;20.20;62.80
44247;DHT22;29922;0.000;0.000;2022-07-23T14:05:56;20.20;62.60
44247;DHT22;29922;0.000;0.000;2022-07-23T14:11:17;20.20;62.70
44247;DHT22;29922;0.000;0.000;2022-07-23T14:16:38;20.30;62.50
44247;DHT22;29922;0.000;0.000;2022-07-23T14:22:00;20.30;62.50
44247;DHT22;29922;0.000;0.000;2022-07-23T14:27:20;20.30;62.20
44247;DHT22;29922;0.000;0.000;2022-07-23T14:32:41;20.30;62.20
44247;DHT22;29922;0.000;0.000;2022-07-23T14:38:03;20.30;62.10
44247;DHT22;29922;0.000;0.000;2022-07-23T14:43:23;20.30;62.00
44247;DHT22;29922;0.000;0.000;2022-07-23T14:48:44;20.30;61.80
44247;DHT22;29922;0.000;0.000;2022-07-23T14:54:06;20.30;62.00
44247;DHT22;29922;0.000;0.000;2022-07-23T14:59:27;20.30;61.80
44247;DHT22;29922;0.000;0.000;2022-07-23T15:04:48;20.30;61.70
44247;DHT22;29922;0.000;0.000;2022-07-23T15:10:09;20.30;61.70
44247;DHT22;29922;0.000;0.000;2022-07-23T15:15:30;20.30;61.60
44247;DHT22;29922;0.000;0.000;2022-07-23T15:20:51;20.40;61.50
44247;DHT22;29922;0.000;0.000;2022-07-23T15:26:12;20.40;61.50
44247;DHT22;29922;0.000;0.000;2022-07-23T15:31:34;20.40;61.30
44247;DHT22;29922;0.000;0.000;2022-07-23T15:36:54;20.40;61.20
44247;DHT22;29922;0.000;0.000;2022-07-23T15:42:16;20.50;61.40
44247;DHT22;29922;0.000;0.000;2022-07-23T15:47:37;20.50;60.90
44247;DHT22;29922;0.000;0.000;2022-07-23T15:52:59;20.50;61.00
44247;DHT22;29922;0.000;0.000;2022-07-23T15:58:20;20.50;60.80
44247;DHT22;29922;0.000;0.000;2022-07-23T16:03:41;20.50;60.60
44247;DHT22;29922;0.000;0.000;2022-07-23T16:09:02;20.60;60.60
44247;DHT22;29922;0.000;0.000;2022-07-23T16:14:25;20.60;60.50
44247;DHT22;29922;0.000;0.000;2022-07-23T16:19:45;20.60;61.20
44247;DHT22;29922;0.000;0.000;2022-07-23T16:25:07;20.60;60.30
44247;DHT22;29922;0.000;0.000;2022-07-23T16:30:30;20.60;60.20
44247;DHT22;29922;0.000;0.000;2022-07-23T16:35:51;20.60;60.20
44247;DHT22;29922;0.000;0.000;2022-07-23T16:41:12;20.70;60.00
44247;DHT22;29922;0.000;0.000;2022-07-23T16:46:34;20.70;60.00
44247;DHT22;29922;0.000;0.000;2022-07-23T16:51:54;20.70;59.90
44247;DHT22;29922;0.000;0.000;2022-07-23T16:57:15;20.70;59.90
44247;DHT22;29922;0.000;0.000;2022-07-23T17:02:37;20.70;59.80
44247;DHT22;29922;0.000;0.000;2022-07-23T17:07:59;20.60;59.90
44247;DHT22;29922;0.000;0.000;2022-07-23T17:13:21;20.60;59.90
44247;DHT22;29922;0.000;0.000;2022-07-23T17:18:43;20.60;60.00
44247;DHT22;29922;0.000;0.000;2022-07-23T17:24:03;20.50;59.90
44247;DHT22;29922;0.000;0.000;2022-07-23T17:29:24;20.50;60.00
44247;DHT22;29922;0.000;0.000;2022-07-23T17:34:46;20.50;60.00
44247;DHT22;29922;0.000;0.000;2022-07-23T17:40:08;20.50;59.90
44247;DHT22;29922;0.000;0.000;2022-07-23T17:45:29;20.50;60.00
44247;DHT22;29922;0.000;0.000;2022-07-23T17:50:51;20.40;60.10
44247;DHT22;29922;0.000;0.000;2022-07-23T17:56:12;20.40;60.20
44247;DHT22;29922;0.000;0.000;2022-07-23T18:01:33;20.40;60.30
44247;DHT22;29922;0.000;0.000;2022-07-23T18:06:56;20.40;60.30
44247;DHT22;29922;0.000;0.000;2022-07-23T18:12:18;20.40;60.40
44247;DHT22;29922;0.000;0.000;2022-07-23T18:17:39;20.30;60.40
44247;DHT22;29922;0.000;0.000;2022-07-23T18:23:03;20.30;60.40
44247;DHT22;29922;0.000;0.000;2022-07-23T18:28:23;20.30;60.30
44247;DHT22;29922;0.000;0.000;2022-07-23T18:33:44;20.30;60.30
44247;DHT22;29922;0.000;0.000;2022-07-23T18:39:06;20.30;60.20
44247;DHT22;29922;0.000;0.000;2022-07-23T18:44:26;20.30;60.10
44247;DHT22;29922;0.000;0.000;2022-07-23T18:49:47;20.30;60.30
44247;DHT22;29922;0.000;0.000;2022-07-23T18:55:09;20.30;60.20
44247;DHT22;29922;0.000;0.000;2022-07-23T19:00:31;20.30;60.30
44247;DHT22;29922;0.000;0.000;2022-07-23T19:05:52;20.30;60.70
44247;DHT22;29922;0.000;0.000;2022-07-23T19:11:14;20.30;60.80
44247;DHT22;29922;0.000;0.000;2022-07-23T19:16:35;20.20;60.80
44247;DHT22;29922;0.000;0.000;2022-07-23T19:21:56;20.20;61.10
44247;DHT22;29922;0.000;0.000;2022-07-23T19:27:18;20.30;61.50
44247;DHT22;29922;0.000;0.000;2022-07-23T19:32:39;20.30;61.80
44247;DHT22;29922;0.000;0.000;2022-07-23T19:37:59;20.20;62.00
44247;DHT22;29922;0.000;0.000;2022-07-23T19:43:22;20.20;62.20
44247;DHT22;29922;0.000;0.000;2022-07-23T19:48:43;20.20;62.30
44247;DHT22;29922;0.000;0.000;2022-07-23T19:54:04;20.20;62.20
44247;DHT22;29922;0.000;0.000;2022-07-23T19:59:26;20.20;62.40
44247;DHT22;29922;0.000;0.000;2022-07-23T20:04:47;20.20;62.70
44247;DHT22;29922;0.000;0.000;2022-07-23T20:10:09;20.20;62.90
44247;DHT22;29922;0.000;0.000;2022-07-23T20:15:31;20.20;62.70
44247;DHT22;29922;0.000;0.000;2022-07-23T20:20:52;20.20;62.40
44247;DHT22;29922;0.000;0.000;2022-07-23T20:26:13;20.20;62.20
44247;DHT22;29922;0.000;0.000;2022-07-23T20:31:35;20.20;62.30
44247;DHT22;29922;0.000;0.000;2022-07-23T20:36:55;20.20;62.30
44247;DHT22;29922;0.000;0.000;2022-07-23T20:42:16;20.10;62.20
44247;DHT22;29922;0.000;0.000;2022-07-23T20:47:40;20.20;62.20
44247;DHT22;29922;0.000;0.000;2022-07-23T20:53:01;20.10;61.90
44247;DHT22;29922;0.000;0.000;2022-07-23T20:58:21;20.10;61.50
44247;DHT22;29922;0.000;0.000;2022-07-23T21:03:43;20.10;61.40
44247;DHT22;29922;0.000;0.000;2022-07-23T21:09:04;20.10;61.20
44247;DHT22;29922;0.000;0.000;2022-07-23T21:14:24;20.10;60.90
44247;DHT22;29922;0.000;0.000;2022-07-23T21:19:46;20.00;60.70
44247;DHT22;29922;0.000;0.000;2022-07-23T21:25:08;20.00;60.60
44247;DHT22;29922;0.000;0.000;2022-07-23T21:30:28;20.00;60.70
44247;DHT22;29922;0.000;0.000;2022-07-23T21:35:50;20.00;60.70
44247;DHT22;29922;0.000;0.000;2022-07-23T21:41:11;20.00;60.80
44247;DHT22;29922;0.000;0.000;2022-07-23T21:46:32;20.00;60.80
44247;DHT22;29922;0.000;0.000;2022-07-23T21:51:54;20.00;60.90
44247;DHT22;29922;0.000;0.000;2022-07-23T21:57:15;20.00;60.90
44247;DHT22;29922;0.000;0.000;2022-07-23T22:02:35;20.00;60.70
44247;DHT22;29922;0.000;0.000;2022-07-23T22:07:57;20.00;60.90
44247;DHT22;29922;0.000;0.000;2022-07-23T22:13:18;20.00;60.60
44247;DHT22;29922;0.000;0.000;2022-07-23T22:18:39;20.00;60.60
44247;DHT22;29922;0.000;0.000;2022-07-23T22:24:01;20.00;61.30
44247;DHT22;29922;0.000;0.000;2022-07-23T22:29:21;20.00;60.50
44247;DHT22;29922;0.000;0.000;2022-07-23T22:34:42;20.00;60.40
44247;DHT22;29922;0.000;0.000;2022-07-23T22:40:05;20.00;60.20
44247;DHT22;29922;0.000;0.000;2022-07-23T22:45:27;20.00;60.30
44247;DHT22;29922;0.000;0.000;2022-07-23T22:50:48;20.00;60.40
44247;DHT22;29922;0.000;0.000;2022-07-23T22:56:10;19.90;60.70
44247;DHT22;29922;0.000;0.000;2022-07-23T23:01:31;19.90;60.70
44247;DHT22;29922;0.000;0.000;2022-07-23T23:06:51;19.90;60.70
44247;DHT22;29922;0.000;0.000;2022-07-23T23:12:13;19.90;61.10
44247;DHT22;29922;0.000;0.000;2022-07-23T23:17:34;19.80;61.30
44247;DHT22;29922;0.000;0.000;2022-07-23T23:22:54;19.90;61.10
44247;DHT22;29922;0.000;0.000;2022-07-23T23:28:16;19.90;60.70
44247;DHT22;29922;0.000;0.000;2022-07-23T23:33:37;19.90;60.40
44247;DHT22;29922;0.000;0.000;2022-07-23T23:38:57;19.90;60.60
44247;DHT22;29922;0.000;0.000;2022-07-23T23:44:19;19.90;60.20
44247;DHT22;29922;0.000;0.000;2022-07-23T23:49:40;19.90;60.20
44247;DHT22;29922;0.000;0.000;2022-07-23T23:55:01;19.90;60.10
